createdAt,value
2018-01-22T00:00:19.592Z,33.40
2018-01-22T00:02:47.816Z,33.23
2018-01-22T00:05:15.565Z,36.23
2018-01-22T00:07:43.018Z,31.13
2018-01-22T00:10:10.425Z,27.83
2018-01-22T00:12:37.864Z,31.37
2018-01-22T00:15:05.403Z,32.17
2018-01-22T00:17:32.853Z,31.27
2018-01-22T00:20:00.628Z,31.00
2018-01-22T00:22:28.070Z,32.83
2018-01-22T00:24:55.488Z,29.50
2018-01-22T00:27:23.809Z,28.93
2018-01-22T00:29:51.236Z,30.73
2018-01-22T00:32:18.678Z,32.30
2018-01-22T00:34:46.905Z,33.70
2018-01-22T00:37:14.352Z,29.67
2018-01-22T00:39:41.803Z,32.37
2018-01-22T00:42:09.572Z,34.27
2018-01-22T00:44:37.032Z,26.77
2018-01-22T00:47:04.464Z,36.33
2018-01-22T00:49:31.908Z,35.87
2018-01-22T00:52:00.100Z,37.23
2018-01-22T00:54:27.600Z,32.00
2018-01-22T00:56:55.141Z,31.83
2018-01-22T00:59:22.596Z,33.37
2018-01-22T01:01:50.024Z,39.20
2018-01-22T01:04:17.711Z,45.90
2018-01-22T01:06:45.167Z,35.83
2018-01-22T01:09:12.628Z,39.10
2018-01-22T01:11:40.087Z,30.63
2018-01-22T01:14:08.307Z,38.33
2018-01-22T01:16:35.740Z,31.67
2018-01-22T01:19:03.180Z,36.97
2018-01-22T01:21:31.493Z,36.07
2018-01-22T01:23:58.906Z,42.10
2018-01-22T01:26:27.131Z,38.93
2018-01-22T01:28:54.605Z,36.83
2018-01-22T01:31:22.052Z,37.43
2018-01-22T01:33:49.820Z,35.40
2018-01-22T01:36:17.264Z,36.20
2018-01-22T01:38:44.724Z,34.23
2018-01-22T01:41:12.183Z,29.60
2018-01-22T01:43:39.635Z,34.60
2018-01-22T01:46:07.072Z,29.20
2018-01-22T01:48:34.868Z,31.70
2018-01-22T01:51:02.295Z,32.03
2018-01-22T01:53:29.795Z,35.33
2018-01-22T01:55:57.336Z,29.73
2018-01-22T01:58:24.788Z,30.60
2018-01-22T02:00:52.225Z,34.50
2018-01-22T02:03:19.912Z,32.83
2018-01-22T02:05:47.380Z,32.67
2018-01-22T02:08:14.828Z,32.17
2018-01-22T02:10:42.275Z,32.10
2018-01-22T02:13:09.700Z,34.40
2018-01-22T02:15:37.920Z,35.03
2018-01-22T02:18:05.480Z,33.00
2018-01-22T02:20:32.936Z,33.27
2018-01-22T02:23:00.381Z,38.30
2018-01-22T02:25:27.844Z,40.57
2018-01-22T02:27:55.303Z,31.43
2018-01-22T02:30:22.736Z,32.13
2018-01-22T02:32:50.520Z,36.17
2018-01-22T02:35:17.988Z,35.30
2018-01-22T02:37:45.523Z,30.90
2018-01-22T02:40:12.975Z,29.30
2018-01-22T02:42:40.472Z,32.93
2018-01-22T02:45:07.999Z,28.47
2018-01-22T02:47:35.762Z,34.37
2018-01-22T02:50:03.192Z,32.60
2018-01-22T02:52:30.626Z,37.37
2018-01-22T02:54:58.068Z,35.97
2018-01-22T02:57:25.597Z,32.47
2018-01-22T02:59:53.048Z,36.00
2018-01-22T03:02:20.515Z,35.53
2018-01-22T03:04:47.968Z,36.23
2018-01-22T03:07:15.423Z,33.93
2018-01-22T03:09:43.188Z,42.70
2018-01-22T03:12:10.619Z,44.00
2018-01-22T03:14:38.048Z,38.50
2018-01-22T03:17:06.256Z,36.87
2018-01-22T03:19:33.676Z,42.07
2018-01-22T03:22:01.904Z,42.43
2018-01-22T03:24:29.671Z,40.27
2018-01-22T03:26:57.764Z,35.03
2018-01-22T03:29:25.189Z,29.40
2018-01-22T03:31:52.656Z,35.23
2018-01-22T03:34:20.084Z,35.57
2018-01-22T03:36:47.564Z,33.57
2018-01-22T03:39:15.017Z,39.30
2018-01-22T03:41:42.447Z,36.97
2018-01-22T03:44:10.657Z,38.63
2018-01-22T03:46:38.327Z,38.97
2018-01-22T03:49:05.783Z,43.30
2018-01-22T03:51:33.211Z,40.67
2018-01-22T03:54:00.692Z,42.90
2018-01-22T03:56:28.140Z,46.60
2018-01-22T03:58:55.556Z,55.03
2018-01-22T04:01:24.008Z,54.93
2018-01-22T04:03:51.544Z,53.90
2018-01-22T04:06:18.980Z,63.10
2018-01-22T04:08:46.431Z,51.23
2018-01-22T04:11:13.915Z,57.67
2018-01-22T04:13:41.371Z,60.47
2018-01-22T04:16:09.045Z,60.00
2018-01-22T04:18:36.471Z,61.93
2018-01-22T04:21:03.952Z,57.37
2018-01-22T04:23:31.387Z,59.23
2018-01-22T04:25:58.870Z,64.43
2018-01-22T04:28:26.329Z,63.43
2018-01-22T04:30:54.179Z,81.87
2018-01-22T04:33:21.616Z,68.20
2018-01-22T04:35:49.045Z,74.13
2018-01-22T04:38:17.251Z,73.53
2018-01-22T04:40:44.732Z,67.83
2018-01-22T04:43:12.206Z,71.70
2018-01-22T04:45:39.956Z,78.03
2018-01-22T04:48:07.402Z,69.83
2018-01-22T04:50:34.903Z,81.17
2018-01-22T04:53:02.345Z,76.93
2018-01-22T04:55:29.788Z,69.20
2018-01-22T04:57:57.215Z,62.20
2018-01-22T05:00:24.704Z,67.63
2018-01-22T05:02:52.132Z,62.77
2018-01-22T05:05:19.580Z,70.30
2018-01-22T05:07:47.063Z,72.87
2018-01-22T05:10:14.502Z,87.57
2018-01-22T05:12:41.932Z,80.00
2018-01-22T05:15:10.152Z,74.93
2018-01-22T05:17:37.611Z,94.87
2018-01-22T05:20:05.070Z,88.50
2018-01-22T05:22:33.292Z,125.93
2018-01-22T05:25:00.769Z,129.03
2018-01-22T05:27:28.309Z,140.07
2018-01-22T05:29:55.756Z,133.47
2018-01-22T05:32:23.224Z,170.07
2018-01-22T05:34:50.690Z,177.30
2018-01-22T05:37:18.132Z,142.53
2018-01-22T05:39:45.603Z,170.83
2018-01-22T05:42:13.053Z,154.90
2018-01-22T05:44:40.772Z,208.57
2018-01-22T05:47:08.981Z,191.90
2018-01-22T05:49:36.412Z,225.97
2018-01-22T05:52:03.860Z,245.17
2018-01-22T05:54:31.300Z,244.23
2018-01-22T05:56:58.739Z,214.10
2018-01-22T05:59:26.183Z,253.30
2018-01-22T06:01:54.556Z,270.50
2018-01-22T06:04:21.988Z,255.03
2018-01-22T06:06:49.498Z,280.73
2018-01-22T06:09:17.043Z,211.93
2018-01-22T06:11:44.474Z,261.27
2018-01-22T06:14:11.920Z,248.13
2018-01-22T06:16:40.118Z,251.47
2018-01-22T06:19:07.540Z,245.07
2018-01-22T06:21:35.988Z,255.33
2018-01-22T06:24:03.435Z,204.10
2018-01-22T06:26:30.876Z,205.90
2018-01-22T06:28:58.328Z,236.87
2018-01-22T06:31:25.752Z,199.73
2018-01-22T06:33:53.958Z,188.93
2018-01-22T06:36:21.411Z,176.00
2018-01-22T06:38:48.876Z,176.37
2018-01-22T06:41:16.333Z,158.90
2018-01-22T06:43:43.792Z,193.90
2018-01-22T06:46:11.224Z,167.67
2018-01-22T06:48:38.707Z,166.70
2018-01-22T06:51:06.156Z,139.73
2018-01-22T06:53:33.629Z,145.13
2018-01-22T06:56:01.080Z,158.93
2018-01-22T06:58:28.527Z,133.03
2018-01-22T07:00:55.956Z,149.40
2018-01-22T07:03:24.163Z,138.63
2018-01-22T07:05:51.627Z,131.07
2018-01-22T07:08:19.089Z,112.70
2018-01-22T07:10:46.555Z,125.07
2018-01-22T07:13:14.008Z,121.87
2018-01-22T07:15:41.454Z,102.80
2018-01-22T07:18:08.884Z,97.57
2018-01-22T07:20:36.324Z,96.17
2018-01-22T07:23:04.549Z,91.97
2018-01-22T07:25:31.964Z,84.77
2018-01-22T07:27:59.408Z,71.97
2018-01-22T07:30:27.634Z,66.40
2018-01-22T07:32:55.090Z,82.13
2018-01-22T07:35:22.548Z,76.83
2018-01-22T07:37:49.976Z,64.37
2018-01-22T07:40:17.404Z,73.13
2018-01-22T07:42:45.628Z,75.40
2018-01-22T07:45:13.048Z,63.23
2018-01-22T07:47:41.264Z,58.67
2018-01-22T07:50:08.711Z,51.93
2018-01-22T07:52:36.132Z,62.13
2018-01-22T07:55:04.352Z,61.87
2018-01-22T07:57:31.903Z,54.27
2018-01-22T07:59:59.308Z,50.50
2018-01-22T08:02:26.830Z,52.53
2018-01-22T08:04:54.326Z,49.33
2018-01-22T08:07:21.701Z,51.17
2018-01-22T08:09:49.901Z,47.07
2018-01-22T08:12:17.672Z,52.00
2018-01-22T08:14:45.100Z,47.87
2018-01-22T08:17:12.592Z,39.73
2018-01-22T08:19:40.041Z,44.40
2018-01-22T08:22:07.474Z,39.20
2018-01-22T08:24:35.671Z,40.67
2018-01-22T08:27:03.336Z,39.70
2018-01-22T08:29:30.764Z,44.80
2018-01-22T08:31:58.966Z,29.70
2018-01-22T08:34:26.424Z,35.70
2018-01-22T08:36:53.855Z,30.87
2018-01-22T08:39:21.285Z,30.67
2018-01-22T08:41:49.525Z,29.93
2018-01-22T08:44:16.948Z,27.00
2018-01-22T08:46:44.432Z,31.63
2018-01-22T08:49:11.880Z,26.23
2018-01-22T08:51:39.348Z,32.07
2018-01-22T08:54:06.787Z,28.83
2018-01-22T08:56:34.287Z,29.00
2018-01-22T08:59:01.815Z,28.00
2018-01-22T09:01:29.227Z,24.47
2018-01-22T09:03:57.432Z,34.17
2018-01-22T09:06:24.912Z,30.53
2018-01-22T09:08:52.332Z,39.07
2018-01-22T09:11:19.821Z,24.77
2018-01-22T09:13:47.271Z,23.73
2018-01-22T09:16:14.700Z,31.03
2018-01-22T09:18:42.903Z,22.27
2018-01-22T09:21:10.330Z,22.40
2018-01-22T09:23:38.545Z,22.37
2018-01-22T09:26:06.001Z,22.93
2018-01-22T09:28:33.456Z,20.47
2018-01-22T09:31:00.916Z,25.70
2018-01-22T09:33:28.357Z,22.87
2018-01-22T09:35:55.836Z,26.20
2018-01-22T09:38:23.260Z,22.77
2018-01-22T09:40:50.761Z,34.50
2018-01-22T09:43:18.179Z,22.93
2018-01-22T09:45:45.603Z,19.67
2018-01-22T09:48:14.673Z,20.20
2018-01-22T09:50:42.208Z,28.73
2018-01-22T09:53:09.648Z,36.40
2018-01-22T09:55:37.132Z,31.10
2018-01-22T09:58:04.568Z,28.87
2018-01-22T10:00:32.040Z,32.70
2018-01-22T10:02:59.496Z,24.13
2018-01-22T10:05:26.955Z,22.97
2018-01-22T10:07:54.416Z,21.13
2018-01-22T10:10:21.859Z,29.50
2018-01-22T10:12:49.280Z,27.53
2018-01-22T10:15:17.500Z,31.90
2018-01-22T10:17:44.947Z,24.97
2018-01-22T10:20:12.408Z,22.20
2018-01-22T10:22:39.832Z,22.50
2018-01-22T10:25:08.038Z,26.60
2018-01-22T10:27:35.456Z,22.63
2018-01-22T10:30:03.672Z,23.30
2018-01-22T10:32:31.112Z,21.63
2018-01-22T10:34:58.588Z,26.33
2018-01-22T10:37:26.046Z,23.00
2018-01-22T10:39:53.476Z,20.30
2018-01-22T10:42:20.900Z,23.30
2018-01-22T10:44:48.337Z,32.13
2018-01-22T10:47:15.884Z,20.07
2018-01-22T10:49:43.335Z,22.90
2018-01-22T10:52:10.736Z,26.93
2018-01-22T10:54:38.955Z,31.20
2018-01-22T10:57:06.368Z,26.47
2018-01-22T10:59:34.616Z,28.63
2018-01-22T11:02:02.163Z,24.17
2018-01-22T11:04:29.604Z,22.47
2018-01-22T11:06:57.068Z,16.97
2018-01-22T11:09:24.753Z,33.30
2018-01-22T11:11:52.188Z,19.73
2018-01-22T11:14:19.612Z,22.70
2018-01-22T11:16:47.048Z,26.67
2018-01-22T11:19:15.244Z,26.40
2018-01-22T11:21:42.668Z,25.43
2018-01-22T11:24:10.908Z,24.50
2018-01-22T11:26:38.445Z,16.70
2018-01-22T11:29:05.872Z,23.60
2018-01-22T11:31:34.075Z,22.80
2018-01-22T11:34:01.542Z,19.83
2018-01-22T11:36:28.962Z,29.70
2018-01-22T11:38:57.184Z,22.57
2018-01-22T11:41:24.617Z,20.00
2018-01-22T11:43:52.040Z,23.37
2018-01-22T11:46:19.477Z,24.63
2018-01-22T11:48:47.044Z,22.77
2018-01-22T11:51:15.976Z,18.63
2018-01-22T11:53:43.463Z,22.03
2018-01-22T11:56:10.916Z,24.70
2018-01-22T11:58:38.341Z,24.20
2018-01-22T12:01:06.554Z,26.77
2018-01-22T12:03:33.988Z,23.10
2018-01-22T12:06:01.470Z,26.97
2018-01-22T12:08:28.922Z,26.50
2018-01-22T12:10:56.345Z,18.33
2018-01-22T12:13:23.772Z,17.97
2018-01-22T12:15:51.215Z,28.00
2018-01-22T12:18:18.639Z,17.17
2018-01-22T12:20:46.108Z,28.80
2018-01-22T12:23:13.664Z,22.83
2018-01-22T12:25:41.097Z,20.00
2018-01-22T12:28:08.520Z,28.50
2018-01-22T12:30:36.040Z,20.70
2018-01-22T12:33:03.492Z,17.37
2018-01-22T12:35:30.920Z,23.30
2018-01-22T12:37:58.608Z,24.13
2018-01-22T12:40:26.072Z,17.97
2018-01-22T12:42:53.500Z,25.00
2018-01-22T12:45:20.952Z,29.50
2018-01-22T12:47:48.385Z,27.97
2018-01-22T12:50:15.904Z,18.27
2018-01-22T12:52:43.341Z,20.53
2018-01-22T12:55:10.818Z,24.37
2018-01-22T12:57:38.244Z,23.93
2018-01-22T13:00:05.679Z,25.90
2018-01-22T13:02:33.903Z,22.97
2018-01-22T13:05:01.360Z,28.63
2018-01-22T13:07:28.801Z,22.90
2018-01-22T13:09:56.229Z,20.63
2018-01-22T13:12:24.420Z,21.57
2018-01-22T13:14:52.114Z,26.33
2018-01-22T13:17:19.572Z,23.43
2018-01-22T13:19:46.995Z,23.67
2018-01-22T13:22:14.509Z,27.13
2018-01-22T13:24:41.930Z,29.10
2018-01-22T13:27:09.354Z,26.80
2018-01-22T13:29:37.673Z,27.97
2018-01-22T13:32:05.123Z,21.23
2018-01-22T13:34:32.585Z,21.53
2018-01-22T13:37:00.012Z,28.47
2018-01-22T13:39:27.436Z,22.40
2018-01-22T13:41:54.896Z,22.93
2018-01-22T13:44:23.942Z,25.60
2018-01-22T13:46:51.351Z,31.93
2018-01-22T13:49:18.867Z,22.83
2018-01-22T13:51:46.842Z,26.63
2018-01-22T13:54:14.280Z,30.77
2018-01-22T13:56:41.686Z,23.03
2018-01-22T13:59:09.180Z,27.20
2018-01-22T14:01:36.688Z,29.87
2018-01-22T14:04:04.220Z,28.53
2018-01-22T14:06:31.676Z,27.07
2018-01-22T14:08:59.136Z,24.77
2018-01-22T14:11:26.556Z,30.33
2018-01-22T14:13:54.798Z,24.73
2018-01-22T14:16:22.224Z,28.40
2018-01-22T14:18:49.651Z,22.63
2018-01-22T14:21:17.342Z,22.30
2018-01-22T14:23:44.769Z,28.27
2018-01-22T14:26:12.204Z,23.13
2018-01-22T14:28:39.640Z,24.93
2018-01-22T14:31:07.064Z,32.03
2018-01-22T14:33:34.488Z,25.13
2018-01-22T14:36:02.701Z,25.17
2018-01-22T14:38:30.151Z,29.27
2018-01-22T14:40:57.587Z,26.40
2018-01-22T14:43:25.023Z,26.70
2018-01-22T14:45:53.230Z,28.73
2018-01-22T14:48:20.713Z,35.07
2018-01-22T14:50:48.380Z,22.90
2018-01-22T14:53:15.820Z,21.90
2018-01-22T14:55:43.252Z,25.37
2018-01-22T14:58:10.684Z,31.67
2018-01-22T15:00:38.909Z,32.30
2018-01-22T15:03:06.333Z,24.17
2018-01-22T15:05:33.824Z,22.83
2018-01-22T15:08:01.276Z,35.63
2018-01-22T15:10:28.732Z,25.33
2018-01-22T15:12:56.246Z,26.60
2018-01-22T15:15:23.625Z,40.00
2018-01-22T15:17:51.060Z,64.07
2018-01-22T15:20:19.387Z,41.70
2018-01-22T15:22:46.700Z,50.73
2018-01-22T15:25:14.958Z,42.03
2018-01-22T15:27:42.404Z,32.40
2018-01-22T15:30:10.596Z,31.33
2018-01-22T15:32:38.813Z,29.73
2018-01-22T15:35:06.227Z,37.93
2018-01-22T15:37:34.448Z,38.73
2018-01-22T15:40:01.901Z,31.70
2018-01-22T15:42:29.364Z,31.20
2018-01-22T15:44:56.820Z,23.63
2018-01-22T15:47:24.244Z,25.37
2018-01-22T15:49:52.448Z,46.23
2018-01-22T15:52:19.903Z,36.67
2018-01-22T15:54:47.375Z,32.37
2018-01-22T15:57:14.840Z,30.03
2018-01-22T15:59:42.274Z,39.10
2018-01-22T16:02:09.738Z,31.73
2018-01-22T16:04:37.204Z,34.70
2018-01-22T16:07:04.627Z,51.33
2018-01-22T16:09:32.060Z,36.83
2018-01-22T16:12:00.261Z,28.53
2018-01-22T16:14:27.740Z,38.00
2018-01-22T16:16:55.196Z,35.83
2018-01-22T16:19:22.872Z,30.13
2018-01-22T16:21:50.305Z,37.23
2018-01-22T16:24:17.767Z,30.93
2018-01-22T16:26:45.442Z,38.03
2018-01-22T16:29:12.857Z,31.57
2018-01-22T16:31:41.106Z,37.03
2018-01-22T16:34:08.504Z,43.70
2018-01-22T16:36:35.988Z,34.43
2018-01-22T16:39:03.416Z,36.77
2018-01-22T16:41:31.090Z,38.83
2018-01-22T16:43:59.256Z,42.20
2018-01-22T16:46:26.692Z,39.13
2018-01-22T16:48:54.911Z,39.03
2018-01-22T16:51:22.344Z,34.97
2018-01-22T16:53:49.842Z,36.93
2018-01-22T16:56:17.269Z,39.97
2018-01-22T16:58:44.743Z,31.40
2018-01-22T17:01:12.168Z,33.70
2018-01-22T17:03:39.605Z,42.73
2018-01-22T17:06:07.820Z,33.97
2018-01-22T17:08:35.257Z,30.30
2018-01-22T17:11:02.691Z,31.70
2018-01-22T17:13:30.888Z,36.43
2018-01-22T17:15:58.319Z,33.77
2018-01-22T17:18:26.522Z,32.70
2018-01-22T17:20:54.000Z,36.93
2018-01-22T17:23:21.428Z,33.07
2018-01-22T17:25:48.924Z,28.47
2018-01-22T17:28:16.368Z,46.07
2018-01-22T17:30:43.830Z,43.30
2018-01-22T17:33:11.277Z,41.03
2018-01-22T17:35:38.708Z,35.47
2018-01-22T17:38:06.901Z,37.00
2018-01-22T17:40:34.375Z,41.70
2018-01-22T17:43:01.804Z,42.47
2018-01-22T17:45:29.289Z,37.83
2018-01-22T17:47:56.728Z,41.43
2018-01-22T17:50:24.148Z,35.00
2018-01-22T17:52:52.372Z,36.23
2018-01-22T17:55:19.812Z,39.03
2018-01-22T17:57:47.299Z,37.13
2018-01-22T18:00:14.734Z,35.47
2018-01-22T18:02:42.170Z,42.87
2018-01-22T18:05:10.356Z,28.80
2018-01-22T18:07:37.780Z,51.80
2018-01-22T18:10:05.226Z,45.00
2018-01-22T18:12:32.774Z,36.37
2018-01-22T18:15:00.198Z,41.17
2018-01-22T18:17:27.638Z,38.67
2018-01-22T18:19:55.124Z,37.87
2018-01-22T18:22:22.598Z,31.53
2018-01-22T18:24:50.339Z,28.60
2018-01-22T18:27:17.766Z,43.07
2018-01-22T18:29:45.960Z,40.53
2018-01-22T18:32:13.435Z,36.83
2018-01-22T18:34:40.853Z,33.93
2018-01-22T18:37:09.044Z,44.17
2018-01-22T18:39:36.487Z,34.57
2018-01-22T18:42:03.920Z,37.93
2018-01-22T18:44:32.117Z,28.67
2018-01-22T18:47:00.628Z,34.07
2018-01-22T18:49:28.059Z,30.97
2018-01-22T18:51:56.257Z,38.73
2018-01-22T18:54:23.718Z,30.50
2018-01-22T18:56:51.153Z,39.17
2018-01-22T18:59:18.576Z,29.87
2018-01-22T19:01:46.808Z,42.50
2018-01-22T19:04:14.240Z,32.60
2018-01-22T19:06:41.732Z,41.40
2018-01-22T19:09:09.184Z,33.03
2018-01-22T19:11:36.605Z,31.17
2018-01-22T19:14:04.812Z,40.20
2018-01-22T19:16:32.243Z,29.40
2018-01-22T19:18:59.724Z,41.47
2018-01-22T19:21:27.188Z,36.17
2018-01-22T19:23:54.946Z,31.93
2018-01-22T19:26:22.373Z,26.83
2018-01-22T19:28:49.888Z,32.73
2018-01-22T19:31:17.626Z,23.40
2018-01-22T19:33:45.083Z,28.43
2018-01-22T19:36:12.539Z,34.50
2018-01-22T19:38:39.972Z,42.87
2018-01-22T19:41:07.493Z,33.93
2018-01-22T19:43:35.688Z,38.20
2018-01-22T19:46:03.896Z,34.63
2018-01-22T19:48:31.320Z,35.87
2018-01-22T19:50:59.511Z,43.37
2018-01-22T19:53:27.311Z,35.00
2018-01-22T19:55:54.736Z,35.30
2018-01-22T19:58:22.213Z,43.27
2018-01-22T20:00:49.668Z,50.83
2018-01-22T20:03:17.127Z,41.93
2018-01-22T20:05:44.557Z,40.97
2018-01-22T20:08:12.250Z,29.97
2018-01-22T20:10:39.672Z,30.70
2018-01-22T20:13:07.096Z,36.97
2018-01-22T20:15:35.304Z,46.57
2018-01-22T20:18:02.797Z,51.60
2018-01-22T20:20:30.228Z,29.13
2018-01-22T20:22:57.745Z,36.80
2018-01-22T20:25:25.188Z,32.93
2018-01-22T20:27:52.628Z,31.77
2018-01-22T20:30:20.056Z,30.77
2018-01-22T20:32:48.260Z,33.43
2018-01-22T20:35:15.689Z,26.90
2018-01-22T20:37:44.009Z,28.90
2018-01-22T20:40:11.438Z,34.20
2018-01-22T20:42:38.908Z,33.53
2018-01-22T20:45:06.372Z,22.87
2018-01-22T20:47:33.800Z,33.13
2018-01-22T20:50:01.228Z,32.53
2018-01-22T20:52:29.485Z,22.97
2018-01-22T20:54:56.909Z,32.27
2018-01-22T20:57:24.378Z,20.93
2018-01-22T20:59:51.928Z,28.50
2018-01-22T21:02:19.360Z,23.63
2018-01-22T21:04:46.799Z,27.37
2018-01-22T21:07:15.068Z,28.77
2018-01-22T21:09:43.292Z,30.00
2018-01-22T21:12:10.752Z,38.57
2018-01-22T21:14:38.196Z,29.73
2018-01-22T21:17:05.632Z,24.67
2018-01-22T21:19:33.839Z,27.03
2018-01-22T21:22:01.297Z,27.20
2018-01-22T21:24:28.743Z,20.33
2018-01-22T21:26:56.164Z,23.63
2018-01-22T21:29:24.696Z,30.00
2018-01-22T21:31:52.152Z,27.07
2018-01-22T21:34:19.582Z,27.20
2018-01-22T21:36:47.292Z,31.83
2018-01-22T21:39:14.720Z,20.10
2018-01-22T21:41:42.184Z,21.77
2018-01-22T21:44:09.643Z,24.73
2018-01-22T21:46:37.092Z,20.60
2018-01-22T21:49:04.556Z,26.77
2018-01-22T21:51:32.008Z,28.77
2018-01-22T21:53:59.420Z,26.50
2018-01-22T21:56:27.676Z,26.03
2018-01-22T21:58:55.408Z,21.77
2018-01-22T22:01:22.863Z,37.17
2018-01-22T22:03:50.324Z,20.13
2018-01-22T22:06:17.776Z,22.23
2018-01-22T22:08:45.240Z,29.30
2018-01-22T22:11:12.709Z,23.93
2018-01-22T22:13:40.254Z,26.47
2018-01-22T22:16:07.692Z,27.83
2018-01-22T22:18:35.265Z,22.37
2018-01-22T22:21:02.689Z,18.50
2018-01-22T22:23:30.888Z,24.20
2018-01-22T22:25:58.312Z,32.53
2018-01-22T22:28:26.524Z,33.33
2018-01-22T22:30:53.964Z,29.57
2018-01-22T22:33:21.448Z,32.43
2018-01-22T22:35:48.896Z,26.23
2018-01-22T22:38:16.320Z,26.37
2018-01-22T22:40:44.532Z,24.83
2018-01-22T22:43:12.397Z,23.27
2018-01-22T22:45:39.836Z,19.27
2018-01-22T22:48:07.256Z,24.50
2018-01-22T22:50:34.777Z,27.87
2018-01-22T22:53:02.233Z,25.20
2018-01-22T22:55:29.664Z,28.90
2018-01-22T22:57:57.104Z,14.10
2018-01-22T23:00:25.388Z,26.03
2018-01-22T23:02:52.881Z,21.33
2018-01-22T23:05:20.346Z,22.43
2018-01-22T23:07:47.792Z,18.73
2018-01-22T23:10:15.228Z,27.17
2018-01-22T23:12:42.672Z,23.63
2018-01-22T23:15:10.883Z,15.60
2018-01-22T23:17:38.293Z,16.77
2018-01-22T23:20:06.726Z,22.60
2018-01-22T23:22:34.185Z,14.93
2018-01-22T23:25:01.607Z,23.40
2018-01-22T23:27:29.088Z,21.37
2018-01-22T23:29:56.511Z,27.93
2018-01-22T23:32:24.700Z,25.87
2018-01-22T23:34:52.151Z,24.10
2018-01-22T23:37:20.358Z,36.87
2018-01-22T23:39:47.760Z,21.47
2018-01-22T23:42:15.964Z,14.57
2018-01-22T23:44:43.384Z,15.67
2018-01-22T23:47:11.585Z,19.77
2018-01-22T23:49:39.064Z,22.00
2018-01-22T23:52:06.519Z,19.77
2018-01-22T23:54:33.991Z,26.23
2018-01-22T23:57:01.432Z,23.97
2018-01-22T23:59:28.852Z,26.07
